createdAt,value
2018-07-03T00:01:15.553Z,8.23
2018-07-03T00:03:44.798Z,8.30
2018-07-03T00:06:13.849Z,7.93
2018-07-03T00:08:42.974Z,7.87
2018-07-03T00:11:12.105Z,9.13
2018-07-03T00:13:41.369Z,9.37
2018-07-03T00:16:14.485Z,8.87
2018-07-03T00:18:43.729Z,8.13
2018-07-03T00:21:12.908Z,8.07
2018-07-03T00:23:42.073Z,8.47
2018-07-03T00:26:11.437Z,9.07
2018-07-03T00:28:40.662Z,9.97
2018-07-03T00:31:09.897Z,10.03
2018-07-03T00:33:39.119Z,8.47
2018-07-03T00:36:08.155Z,8.80
2018-07-03T00:38:37.200Z,8.97
2018-07-03T00:41:06.377Z,9.07
2018-07-03T00:43:35.699Z,9.30
2018-07-03T00:46:04.836Z,9.30
2018-07-03T00:48:33.986Z,9.40
2018-07-03T00:51:03.403Z,9.23
2018-07-03T00:53:32.485Z,9.30
2018-07-03T00:56:01.794Z,9.00
2018-07-03T00:58:30.974Z,10.20
2018-07-03T01:01:00.167Z,10.40
2018-07-03T01:03:29.481Z,9.80
2018-07-03T01:05:58.665Z,10.67
2018-07-03T01:08:27.890Z,10.83
2018-07-03T01:10:57.074Z,11.20
2018-07-03T01:13:26.266Z,11.07
2018-07-03T01:15:55.561Z,9.50
2018-07-03T01:18:24.771Z,10.57
2018-07-03T01:20:53.985Z,10.17
2018-07-03T01:23:23.162Z,9.63
2018-07-03T01:25:52.357Z,8.73
2018-07-03T01:28:21.628Z,9.50
2018-07-03T01:30:50.899Z,9.03
2018-07-03T01:33:19.876Z,8.03
2018-07-03T01:35:48.950Z,9.00
2018-07-03T01:38:18.165Z,10.13
2018-07-03T01:40:47.341Z,8.60
2018-07-03T01:43:16.659Z,9.70
2018-07-03T01:45:45.762Z,8.97
2018-07-03T01:48:14.933Z,8.90
2018-07-03T01:50:44.133Z,8.90
2018-07-03T01:53:13.333Z,10.43
2018-07-03T01:55:42.538Z,9.00
2018-07-03T01:58:12.097Z,7.37
2018-07-03T02:00:41.102Z,8.80
2018-07-03T02:03:09.860Z,13.53
2018-07-03T02:05:38.709Z,14.57
2018-07-03T02:08:07.496Z,16.00
2018-07-03T02:10:36.249Z,14.80
2018-07-03T02:13:04.982Z,13.97
2018-07-03T02:15:33.724Z,15.87
2018-07-03T02:18:02.437Z,14.83
2018-07-03T02:20:31.134Z,13.20
2018-07-03T02:22:59.921Z,13.83
2018-07-03T02:25:28.682Z,11.03
2018-07-03T02:27:57.405Z,10.77
2018-07-03T02:30:26.125Z,11.27
2018-07-03T02:32:54.853Z,11.07
2018-07-03T02:35:23.606Z,12.20
2018-07-03T02:37:52.318Z,12.57
2018-07-03T02:40:21.069Z,13.90
2018-07-03T02:42:49.779Z,13.67
2018-07-03T02:45:18.550Z,14.70
2018-07-03T02:47:47.332Z,16.77
2018-07-03T02:50:16.074Z,17.80
2018-07-03T02:52:44.799Z,13.20
2018-07-03T02:55:13.527Z,12.63
2018-07-03T02:57:42.310Z,14.43
2018-07-03T03:00:11.088Z,13.83
2018-07-03T03:02:39.800Z,13.33
2018-07-03T03:05:08.562Z,13.07
2018-07-03T03:07:37.416Z,13.57
2018-07-03T03:10:06.199Z,13.13
2018-07-03T03:12:35.105Z,13.90
2018-07-03T03:15:03.941Z,14.97
2018-07-03T03:17:32.793Z,13.90
2018-07-03T03:20:01.546Z,16.97
2018-07-03T03:22:30.397Z,17.70
2018-07-03T03:24:59.226Z,13.20
2018-07-03T03:27:28.035Z,11.60
2018-07-03T03:29:56.852Z,29.30
2018-07-03T03:32:25.727Z,14.80
2018-07-03T03:34:54.526Z,11.97
2018-07-03T03:37:23.261Z,14.53
2018-07-03T03:39:51.977Z,14.90
2018-07-03T03:42:20.782Z,14.03
2018-07-03T03:44:52.534Z,20.87
2018-07-03T03:47:21.260Z,10.17
2018-07-03T03:49:50.060Z,12.73
2018-07-03T03:52:18.857Z,15.10
2018-07-03T03:54:47.560Z,11.70
2018-07-03T03:57:16.265Z,12.80
2018-07-03T03:59:44.957Z,9.93
2018-07-03T04:02:13.754Z,10.93
2018-07-03T04:04:42.478Z,9.23
2018-07-03T04:07:11.261Z,8.97
2018-07-03T04:09:40.032Z,7.90
2018-07-03T04:12:08.910Z,7.57
2018-07-03T04:14:37.703Z,8.60
2018-07-03T04:17:06.618Z,9.20
2018-07-03T04:19:35.402Z,11.37
2018-07-03T04:22:04.110Z,9.80
2018-07-03T04:24:32.824Z,9.50
2018-07-03T04:27:01.522Z,7.67
2018-07-03T04:29:30.267Z,9.47
2018-07-03T04:31:59.021Z,7.90
2018-07-03T04:34:27.885Z,8.13
2018-07-03T04:36:56.642Z,10.17
2018-07-03T04:39:25.437Z,8.77
2018-07-03T04:41:54.150Z,10.80
2018-07-03T04:44:22.857Z,8.90
2018-07-03T04:46:51.617Z,15.43
2018-07-03T04:49:20.312Z,11.90
2018-07-03T04:51:49.026Z,10.10
2018-07-03T04:54:17.749Z,9.63
2018-07-03T04:56:46.471Z,11.07
2018-07-03T04:59:15.213Z,9.83
2018-07-03T05:01:43.930Z,9.33
2018-07-03T05:04:12.662Z,8.30
2018-07-03T05:06:41.383Z,10.00
2018-07-03T05:09:11.318Z,8.30
2018-07-03T05:11:40.074Z,9.53
2018-07-03T05:14:09.406Z,7.90
2018-07-03T05:16:38.506Z,8.13
2018-07-03T05:19:07.381Z,8.27
2018-07-03T05:21:36.081Z,8.73
2018-07-03T05:24:04.791Z,7.70
2018-07-03T05:26:33.495Z,8.50
2018-07-03T05:29:02.193Z,8.47
2018-07-03T05:31:31.011Z,5.37
2018-07-03T05:33:59.809Z,4.77
2018-07-03T05:36:28.540Z,6.30
2018-07-03T05:38:57.362Z,4.63
2018-07-03T05:41:26.090Z,5.73
2018-07-03T05:43:55.134Z,3.83
2018-07-03T05:46:23.825Z,5.90
2018-07-03T05:48:52.677Z,4.93
2018-07-03T05:51:21.409Z,3.57
2018-07-03T05:53:50.136Z,4.50
2018-07-03T05:56:18.973Z,4.60
2018-07-03T05:58:47.957Z,5.10
2018-07-03T06:01:16.690Z,8.23
2018-07-03T06:03:45.419Z,5.30
2018-07-03T06:06:14.145Z,3.30
2018-07-03T06:08:42.867Z,3.57
2018-07-03T06:11:11.570Z,4.20
2018-07-03T06:13:40.290Z,3.07
2018-07-03T06:16:09.033Z,3.77
2018-07-03T06:18:37.740Z,2.80
2018-07-03T06:21:06.532Z,2.10
2018-07-03T06:23:35.285Z,2.73
2018-07-03T06:26:04.141Z,2.53
2018-07-03T06:28:32.894Z,3.10
2018-07-03T06:31:01.599Z,3.70
2018-07-03T06:33:30.329Z,4.40
2018-07-03T06:35:59.050Z,4.73
2018-07-03T06:38:27.774Z,4.77
2018-07-03T06:40:56.513Z,3.43
2018-07-03T06:43:25.202Z,3.30
2018-07-03T06:45:53.915Z,3.37
2018-07-03T06:48:22.630Z,4.53
2018-07-03T06:50:51.345Z,3.80
2018-07-03T06:53:20.058Z,4.80
2018-07-03T06:55:49.072Z,5.67
2018-07-03T06:58:17.839Z,5.20
2018-07-03T07:00:47.422Z,5.27
2018-07-03T07:03:16.136Z,5.70
2018-07-03T07:05:44.907Z,4.17
2018-07-03T07:08:13.673Z,3.90
2018-07-03T07:10:42.381Z,4.67
2018-07-03T07:13:11.147Z,3.40
2018-07-03T07:15:39.841Z,2.70
2018-07-03T07:18:08.564Z,3.27
2018-07-03T07:20:37.300Z,2.80
2018-07-03T07:23:06.339Z,2.50
2018-07-03T07:25:35.069Z,2.47
2018-07-03T07:28:03.786Z,3.45
2018-07-03T07:30:32.494Z,2.70
2018-07-03T07:33:01.184Z,4.15
2018-07-03T07:35:29.907Z,4.58
2018-07-03T07:37:58.614Z,2.08
2018-07-03T07:40:27.331Z,1.92
2018-07-03T07:42:56.197Z,5.62
2018-07-03T07:45:24.892Z,5.83
2018-07-03T07:47:53.590Z,3.15
2018-07-03T07:50:22.474Z,3.72
2018-07-03T07:52:51.161Z,3.72
2018-07-03T07:55:19.853Z,4.05
2018-07-03T07:57:48.576Z,4.50
2018-07-03T08:00:17.322Z,3.52
2018-07-03T08:02:46.011Z,3.55
2018-07-03T08:05:14.840Z,3.87
2018-07-03T08:07:43.521Z,3.52
2018-07-03T08:10:12.201Z,3.60
2018-07-03T08:12:40.968Z,3.22
2018-07-03T08:15:09.746Z,3.27
2018-07-03T08:17:38.477Z,2.90
2018-07-03T08:20:07.190Z,2.62
2018-07-03T08:22:35.900Z,3.30
2018-07-03T08:25:04.697Z,2.42
2018-07-03T08:27:33.397Z,2.50
2018-07-03T08:30:02.130Z,2.47
2018-07-03T08:32:30.910Z,2.30
2018-07-03T08:34:59.628Z,2.50
2018-07-03T08:37:28.507Z,2.87
2018-07-03T08:39:57.206Z,2.08
2018-07-03T08:42:25.950Z,3.02
2018-07-03T08:44:54.664Z,2.55
2018-07-03T08:47:23.353Z,2.58
2018-07-03T08:49:52.053Z,2.67
2018-07-03T08:52:20.738Z,1.92
2018-07-03T08:54:49.497Z,2.65
2018-07-03T08:57:18.178Z,2.62
2018-07-03T08:59:46.858Z,2.47
2018-07-03T09:02:15.598Z,2.20
2018-07-03T09:04:44.701Z,2.85
2018-07-03T09:07:13.457Z,2.05
2018-07-03T09:09:42.200Z,2.22
2018-07-03T09:12:10.920Z,2.42
2018-07-03T09:14:39.611Z,2.27
2018-07-03T09:17:13.535Z,2.12
2018-07-03T09:19:42.639Z,2.45
2018-07-03T09:22:11.346Z,2.33
2018-07-03T09:24:40.245Z,1.92
2018-07-03T09:27:09.150Z,1.95
2018-07-03T09:29:37.846Z,3.98
2018-07-03T09:32:06.777Z,1.90
2018-07-03T09:34:36.347Z,3.58
2018-07-03T09:37:05.295Z,2.60
2018-07-03T09:39:34.038Z,2.62
2018-07-03T09:42:02.731Z,1.47
2018-07-03T09:44:31.434Z,1.72
2018-07-03T09:47:00.195Z,1.80
2018-07-03T09:49:28.931Z,2.02
2018-07-03T09:51:57.755Z,2.15
2018-07-03T09:54:26.479Z,2.05
2018-07-03T09:56:55.182Z,1.67
2018-07-03T09:59:24.070Z,2.02
2018-07-03T10:01:52.829Z,3.60
2018-07-03T10:04:21.589Z,1.82
2018-07-03T10:06:51.219Z,2.20
2018-07-03T10:09:19.927Z,2.17
2018-07-03T10:11:48.681Z,1.72
2018-07-03T10:14:17.384Z,1.82
2018-07-03T10:16:46.130Z,2.27
2018-07-03T10:19:15.232Z,1.55
2018-07-03T10:21:43.941Z,1.67
2018-07-03T10:24:12.653Z,2.70
2018-07-03T10:26:41.438Z,2.67
2018-07-03T10:29:10.161Z,1.45
2018-07-03T10:31:38.973Z,2.05
2018-07-03T10:34:07.666Z,2.30
2018-07-03T10:36:36.372Z,2.75
2018-07-03T10:39:08.440Z,1.95
2018-07-03T10:41:37.505Z,2.10
2018-07-03T10:44:06.447Z,1.70
2018-07-03T10:46:35.194Z,1.82
2018-07-03T10:49:03.902Z,2.75
2018-07-03T10:51:32.662Z,1.75
2018-07-03T10:54:01.414Z,1.52
2018-07-03T10:56:30.123Z,1.87
2018-07-03T10:58:58.820Z,1.87
2018-07-03T11:01:27.634Z,2.40
2018-07-03T11:03:56.371Z,2.42
2018-07-03T11:06:25.094Z,2.15
2018-07-03T11:08:53.793Z,2.05
2018-07-03T11:11:22.506Z,1.90
2018-07-03T11:13:51.298Z,2.12
2018-07-03T11:16:19.960Z,1.85
2018-07-03T11:18:48.702Z,1.65
2018-07-03T11:21:17.607Z,2.15
2018-07-03T11:23:46.359Z,1.90
2018-07-03T11:26:15.140Z,2.52
2018-07-03T11:28:43.951Z,1.47
2018-07-03T11:31:12.699Z,1.32
2018-07-03T11:33:41.474Z,1.90
2018-07-03T11:36:10.158Z,1.47
2018-07-03T11:38:38.874Z,1.90
2018-07-03T11:41:07.623Z,2.60
2018-07-03T11:43:36.518Z,3.42
2018-07-03T11:46:05.221Z,2.12
2018-07-03T11:48:33.950Z,2.30
2018-07-03T11:51:02.682Z,2.25
2018-07-03T11:53:31.499Z,1.72
2018-07-03T11:56:00.194Z,2.52
2018-07-03T11:58:28.984Z,3.37
2018-07-03T12:00:57.846Z,2.33
2018-07-03T12:03:26.590Z,2.60
2018-07-03T12:05:55.363Z,2.05
2018-07-03T12:08:24.133Z,2.80
2018-07-03T12:10:53.067Z,2.10
2018-07-03T12:13:21.862Z,3.62
2018-07-03T12:15:50.581Z,1.80
2018-07-03T12:18:24.522Z,2.50
2018-07-03T12:20:53.357Z,2.08
2018-07-03T12:23:22.124Z,2.22
2018-07-03T12:25:50.849Z,1.65
2018-07-03T12:28:19.647Z,2.30
2018-07-03T12:30:48.379Z,2.37
2018-07-03T12:33:17.102Z,2.27
2018-07-03T12:35:45.840Z,3.55
2018-07-03T12:38:14.591Z,3.62
2018-07-03T12:40:43.319Z,3.02
2018-07-03T12:43:12.080Z,4.47
2018-07-03T12:45:40.848Z,4.10
2018-07-03T12:48:09.557Z,4.17
2018-07-03T12:50:38.285Z,3.20
2018-07-03T12:53:07.441Z,3.03
2018-07-03T12:55:36.142Z,4.00
2018-07-03T12:58:04.892Z,3.80
2018-07-03T13:00:33.614Z,3.80
2018-07-03T13:03:02.330Z,3.20
2018-07-03T13:05:31.147Z,11.00
2018-07-03T13:07:59.909Z,4.93
2018-07-03T13:10:28.749Z,3.60
2018-07-03T13:12:57.490Z,3.60
2018-07-03T13:15:26.368Z,4.07
2018-07-03T13:17:55.099Z,3.57
2018-07-03T13:20:23.810Z,3.30
2018-07-03T13:22:52.633Z,3.40
2018-07-03T13:25:21.520Z,3.23
2018-07-03T13:27:50.253Z,4.70
2018-07-03T13:30:18.971Z,5.30
2018-07-03T13:32:47.698Z,3.50
2018-07-03T13:35:16.436Z,2.80
2018-07-03T13:37:45.145Z,4.47
2018-07-03T13:40:13.850Z,3.10
2018-07-03T13:42:42.831Z,3.70
2018-07-03T13:45:11.602Z,4.17
2018-07-03T13:47:40.409Z,4.87
2018-07-03T13:50:09.118Z,3.97
2018-07-03T13:52:37.825Z,3.40
2018-07-03T13:55:06.862Z,3.70
2018-07-03T13:57:35.588Z,4.23
2018-07-03T14:00:04.336Z,4.10
2018-07-03T14:02:33.074Z,4.40
2018-07-03T14:05:01.935Z,4.43
2018-07-03T14:07:36.923Z,4.03
2018-07-03T14:10:11.000Z,4.70
2018-07-03T14:12:45.001Z,3.60
2018-07-03T14:15:18.483Z,4.70
2018-07-03T14:17:50.248Z,5.43
2018-07-03T14:20:19.759Z,5.23
2018-07-03T14:22:48.874Z,5.60
2018-07-03T14:25:17.897Z,8.00
2018-07-03T14:27:51.156Z,7.93
2018-07-03T14:30:23.019Z,4.00
2018-07-03T14:32:52.321Z,4.50
2018-07-03T14:35:21.575Z,5.80
2018-07-03T14:37:50.738Z,10.07
2018-07-03T14:40:19.954Z,5.60
2018-07-03T14:42:49.147Z,5.70
2018-07-03T14:45:18.305Z,4.47
2018-07-03T14:47:47.503Z,4.23
2018-07-03T14:50:16.811Z,7.37
2018-07-03T14:52:46.097Z,6.70
2018-07-03T14:55:15.596Z,4.90
2018-07-03T14:57:44.818Z,6.23
2018-07-03T15:00:14.100Z,6.67
2018-07-03T15:02:43.498Z,7.30
2018-07-03T15:05:12.870Z,5.73
2018-07-03T15:07:41.634Z,4.30
2018-07-03T15:10:10.354Z,5.13
2018-07-03T15:12:39.075Z,4.03
2018-07-03T15:15:07.836Z,5.13
2018-07-03T15:17:36.606Z,4.40
2018-07-03T15:20:05.360Z,3.50
2018-07-03T15:22:34.169Z,4.67
2018-07-03T15:25:04.105Z,3.97
2018-07-03T15:27:37.089Z,4.50
2018-07-03T15:30:06.450Z,4.50
2018-07-03T15:32:35.762Z,5.70
2018-07-03T15:35:04.775Z,7.23
2018-07-03T15:37:34.063Z,4.17
2018-07-03T15:40:03.397Z,5.67
2018-07-03T15:42:32.810Z,4.80
2018-07-03T15:45:08.640Z,8.70
2018-07-03T15:47:37.628Z,7.43
2018-07-03T15:50:08.305Z,8.87
2018-07-03T15:52:37.508Z,7.03
2018-07-03T15:55:06.933Z,4.83
2018-07-03T15:57:36.345Z,8.57
2018-07-03T16:00:06.437Z,5.87
2018-07-03T16:02:35.822Z,5.60
2018-07-03T16:05:17.942Z,4.33
2018-07-03T16:08:06.782Z,6.87
2018-07-03T16:10:35.636Z,7.90
2018-07-03T16:13:04.403Z,6.70
2018-07-03T16:15:33.210Z,7.00
2018-07-03T16:18:01.910Z,7.33
2018-07-03T16:20:35.752Z,4.60
2018-07-03T16:23:04.606Z,7.80
2018-07-03T16:25:33.450Z,5.60
2018-07-03T16:28:02.153Z,4.90
2018-07-03T16:30:30.875Z,5.40
2018-07-03T16:32:59.606Z,5.77
2018-07-03T16:35:28.335Z,21.33
2018-07-03T16:37:57.082Z,51.40
2018-07-03T16:40:25.798Z,20.80
2018-07-03T16:42:54.500Z,14.33
2018-07-03T16:45:23.238Z,10.63
2018-07-03T16:47:51.994Z,7.53
2018-07-03T16:50:20.733Z,9.87
2018-07-03T16:52:49.643Z,6.50
2018-07-03T16:55:18.345Z,6.83
2018-07-03T16:57:47.111Z,10.73
2018-07-03T17:00:22.255Z,6.13
2018-07-03T17:02:51.020Z,7.67
2018-07-03T17:05:19.777Z,6.90
2018-07-03T17:07:48.576Z,8.70
2018-07-03T17:10:17.305Z,11.30
2018-07-03T17:12:46.427Z,16.00
2018-07-03T17:15:15.393Z,14.00
2018-07-03T17:17:44.117Z,9.50
2018-07-03T17:20:13.042Z,10.53
2018-07-03T17:22:41.769Z,13.93
2018-07-03T17:25:10.521Z,9.27
2018-07-03T17:27:39.275Z,15.03
2018-07-03T17:30:08.016Z,13.10
2018-07-03T17:32:36.768Z,14.17
2018-07-03T17:35:05.635Z,9.73
2018-07-03T17:37:34.357Z,10.43
2018-07-03T17:40:14.231Z,8.90
2018-07-03T17:42:53.987Z,10.97
2018-07-03T17:45:34.582Z,14.13
2018-07-03T17:48:05.678Z,12.37
2018-07-03T17:50:34.866Z,9.30
2018-07-03T17:53:03.579Z,8.83
2018-07-03T17:55:33.020Z,12.13
2018-07-03T17:58:01.839Z,10.00
2018-07-03T18:00:31.221Z,7.63
2018-07-03T18:03:00.166Z,9.60
2018-07-03T18:05:29.846Z,9.17
2018-07-03T18:07:58.929Z,10.67
2018-07-03T18:10:27.743Z,11.17
2018-07-03T18:12:56.449Z,12.50
2018-07-03T18:15:25.270Z,10.53
2018-07-03T18:17:53.953Z,10.50
2018-07-03T18:20:22.641Z,9.30
2018-07-03T18:22:51.354Z,9.07
2018-07-03T18:25:20.055Z,10.73
2018-07-03T18:27:48.801Z,8.17
2018-07-03T18:30:17.590Z,12.53
2018-07-03T18:32:46.395Z,10.70
2018-07-03T18:35:15.102Z,17.60
2018-07-03T18:37:43.845Z,12.30
2018-07-03T18:40:12.619Z,11.70
2018-07-03T18:42:41.323Z,9.40
2018-07-03T18:45:10.090Z,9.47
2018-07-03T18:47:38.914Z,10.23
2018-07-03T18:50:07.661Z,11.90
2018-07-03T18:52:36.411Z,11.07
2018-07-03T18:55:05.255Z,10.23
2018-07-03T18:57:34.057Z,13.00
2018-07-03T19:00:02.759Z,14.17
2018-07-03T19:02:31.481Z,15.80
2018-07-03T19:05:04.289Z,11.70
2018-07-03T19:07:33.202Z,11.27
2018-07-03T19:10:02.051Z,11.10
2018-07-03T19:12:30.757Z,12.57
2018-07-03T19:14:59.481Z,13.03
2018-07-03T19:17:28.284Z,13.63
2018-07-03T19:19:56.985Z,11.40
2018-07-03T19:22:25.812Z,13.30
2018-07-03T19:24:54.594Z,12.23
2018-07-03T19:27:23.393Z,12.63
2018-07-03T19:29:52.191Z,13.17
2018-07-03T19:32:21.021Z,12.00
2018-07-03T19:34:49.857Z,14.30
2018-07-03T19:37:18.684Z,12.50
2018-07-03T19:39:47.436Z,12.27
2018-07-03T19:42:16.262Z,12.10
2018-07-03T19:44:45.068Z,12.77
2018-07-03T19:47:13.814Z,11.40
2018-07-03T19:49:42.729Z,11.00
2018-07-03T19:52:11.688Z,11.63
2018-07-03T19:54:40.404Z,11.60
2018-07-03T19:57:09.181Z,12.53
2018-07-03T19:59:37.970Z,15.70
2018-07-03T20:02:06.790Z,10.37
2018-07-03T20:04:35.578Z,13.13
2018-07-03T20:07:04.358Z,14.37
2018-07-03T20:09:33.097Z,13.40
2018-07-03T20:12:02.067Z,12.93
2018-07-03T20:14:30.906Z,13.33
2018-07-03T20:17:00.556Z,15.00
2018-07-03T20:19:29.404Z,13.33
2018-07-03T20:21:58.162Z,14.27
2018-07-03T20:24:26.911Z,14.53
2018-07-03T20:26:55.662Z,12.87
2018-07-03T20:29:24.386Z,12.40
2018-07-03T20:31:53.113Z,13.70
2018-07-03T20:34:21.938Z,12.70
2018-07-03T20:36:50.721Z,12.87
2018-07-03T20:39:19.436Z,13.63
2018-07-03T20:41:48.165Z,13.40
2018-07-03T20:44:16.988Z,13.60
2018-07-03T20:46:45.732Z,15.63
2018-07-03T20:49:14.597Z,17.13
2018-07-03T20:51:43.333Z,13.70
2018-07-03T20:54:12.213Z,13.30
2018-07-03T20:56:40.977Z,15.63
2018-07-03T20:59:09.729Z,14.10
2018-07-03T21:01:38.439Z,15.27
2018-07-03T21:04:07.225Z,14.40
2018-07-03T21:06:35.997Z,13.73
2018-07-03T21:09:06.182Z,13.97
2018-07-03T21:11:35.014Z,14.17
2018-07-03T21:14:03.821Z,13.47
2018-07-03T21:16:32.633Z,15.10
2018-07-03T21:19:01.337Z,14.27
2018-07-03T21:21:30.034Z,13.10
2018-07-03T21:23:58.801Z,14.83
2018-07-03T21:26:27.502Z,14.27
2018-07-03T21:28:56.242Z,15.23
2018-07-03T21:31:24.949Z,13.40
2018-07-03T21:33:53.834Z,14.07
2018-07-03T21:36:22.706Z,14.37
2018-07-03T21:38:51.480Z,14.87
2018-07-03T21:41:20.198Z,12.60
2018-07-03T21:43:48.890Z,13.33
2018-07-03T21:46:17.642Z,14.17
2018-07-03T21:48:46.444Z,13.47
2018-07-03T21:51:15.144Z,12.40
2018-07-03T21:53:43.878Z,12.60
2018-07-03T21:56:12.573Z,13.20
2018-07-03T21:58:41.269Z,12.03
2018-07-03T22:01:09.957Z,16.33
2018-07-03T22:03:38.722Z,12.50
2018-07-03T22:06:07.498Z,14.90
2018-07-03T22:08:36.216Z,13.03
2018-07-03T22:11:04.953Z,13.23
2018-07-03T22:13:33.653Z,13.43
2018-07-03T22:16:02.383Z,13.50
2018-07-03T22:18:31.152Z,13.70
2018-07-03T22:20:59.890Z,12.53
2018-07-03T22:23:28.615Z,14.37
2018-07-03T22:25:57.366Z,13.07
2018-07-03T22:28:26.076Z,13.90
2018-07-03T22:30:54.859Z,13.77
2018-07-03T22:33:23.590Z,14.87
2018-07-03T22:35:52.348Z,14.90
2018-07-03T22:38:21.049Z,15.60
2018-07-03T22:40:49.752Z,16.30
2018-07-03T22:43:18.513Z,14.60
2018-07-03T22:45:47.211Z,14.53
2018-07-03T22:48:16.038Z,13.97
2018-07-03T22:50:44.743Z,14.70
2018-07-03T22:53:13.449Z,13.90
2018-07-03T22:55:44.774Z,14.17
2018-07-03T22:58:19.943Z,12.97
2018-07-03T23:00:54.360Z,14.30
2018-07-03T23:03:27.425Z,14.97
2018-07-03T23:06:00.472Z,13.73
2018-07-03T23:08:31.663Z,14.50
2018-07-03T23:11:00.483Z,12.97
2018-07-03T23:13:29.250Z,16.27
2018-07-03T23:15:57.983Z,13.43
2018-07-03T23:18:26.739Z,12.30
2018-07-03T23:20:55.584Z,13.20
2018-07-03T23:23:24.357Z,13.53
2018-07-03T23:25:53.052Z,14.57
2018-07-03T23:28:21.815Z,14.23
2018-07-03T23:30:50.628Z,14.37
2018-07-03T23:33:19.477Z,13.90
2018-07-03T23:35:48.190Z,15.13
2018-07-03T23:38:16.918Z,11.70
2018-07-03T23:40:46.350Z,14.07
2018-07-03T23:43:15.042Z,15.17
2018-07-03T23:46:04.754Z,15.00
2018-07-03T23:48:44.541Z,15.47
2018-07-03T23:51:24.290Z,14.33
2018-07-03T23:54:04.047Z,15.53
2018-07-03T23:56:43.722Z,15.30
2018-07-03T23:59:23.487Z,15.87
